Time;durP1;ratioP1;P1;durP2;ratioP2;P2;SDS_P1;SDS_P2;PMS_P1;PMS_P2;Temp;Humidity;BMP_temperature;BMP_pressure;BME280_temperature;BME280_humidity;BME280_pressure;Samples;Min_cycle;Max_cycle;Signal;HPM_P1;HPM_P2
2022/04/29 00:01:18;;;;;;;9.40;4.00;;;;;;;8.62;54.41;100458.73;109540;1273;23180;-57
2022/04/29 00:03:46;;;;;;;8.90;3.60;;;;;;;8.54;54.78;100453.78;109362;1271;137551;-57
2022/04/29 00:06:16;;;;;;;9.70;4.00;;;;;;;8.43;55.35;100454.08;109407;1273;23109;-57
2022/04/29 00:08:45;;;;;;;7.50;4.10;;;;;;;8.29;55.73;100450.03;109434;1273;137098;-58
2022/04/29 00:11:13;;;;;;;7.50;3.80;;;;;;;8.16;55.93;100447.66;109469;1274;22454;-57
2022/04/29 00:13:50;;;;;;;8.10;3.60;;;;;;;8.06;56.40;100446.98;109471;1271;22450;-57
2022/04/29 00:16:25;;;;;;;9.30;4.10;;;;;;;7.98;56.79;100447.43;109426;1271;137626;-57
2022/04/29 00:18:54;;;;;;;7.90;3.90;;;;;;;7.88;56.98;100448.67;109541;1273;22492;-57
2022/04/29 00:21:23;;;;;;;9.70;4.00;;;;;;;7.77;57.35;100450.11;109451;1272;137255;-57
2022/04/29 00:23:54;;;;;;;7.80;4.00;;;;;;;7.68;57.91;100451.48;109551;1272;22408;-57
2022/04/29 00:26:23;;;;;;;6.60;3.90;;;;;;;7.61;57.62;100453.78;107271;1272;25266;-56
2022/04/29 00:28:51;;;;;;;9.90;4.60;;;;;;;7.59;57.55;100451.50;104918;1274;138129;-56
2022/04/29 00:31:20;;;;;;;6.80;4.20;;;;;;;7.61;56.79;100450.52;109383;1274;23500;-57
2022/04/29 00:33:49;;;;;;;8.20;4.00;;;;;;;7.64;56.75;100446.63;109425;1273;138280;-57
2022/04/29 00:36:19;;;;;;;7.00;4.10;;;;;;;7.67;56.47;100446.27;109479;1274;23154;-57
2022/04/29 00:38:48;;;;;;;7.40;4.60;;;;;;;7.71;56.08;100444.13;109429;1273;137727;-57
2022/04/29 00:41:19;;;;;;;7.50;3.80;;;;;;;7.74;56.02;100444.61;109509;1274;23325;-57
2022/04/29 00:43:57;;;;;;;7.00;3.80;;;;;;;7.78;56.52;100446.40;109430;1273;22491;-57
2022/04/29 00:46:25;;;;;;;7.20;4.30;;;;;;;7.80;56.39;100447.70;109335;1273;137291;-57
2022/04/29 00:48:54;;;;;;;7.30;4.40;;;;;;;7.79;56.05;100442.95;109536;1272;22422;-57
2022/04/29 00:51:22;;;;;;;8.40;3.90;;;;;;;7.84;55.70;100446.19;109404;1273;138342;-57
2022/04/29 00:53:50;;;;;;;9.90;4.00;;;;;;;7.86;55.17;100445.55;109548;1273;22430;-57
2022/04/29 00:56:19;;;;;;;8.50;3.50;;;;;;;7.87;55.73;100443.59;107375;1274;22557;-57
2022/04/29 00:59:03;;;;;;;5.90;4.00;;;;;;;7.85;56.25;100439.34;109210;1274;137917;-57
2022/04/29 01:01:33;;;;;;;7.10;3.80;;;;;;;7.72;56.43;100438.36;109440;1272;23777;-57
2022/04/29 01:04:02;;;;;;;8.40;4.30;;;;;;;7.61;57.34;100438.59;109383;1274;138396;-58
2022/04/29 01:06:32;;;;;;;9.30;4.20;;;;;;;7.48;57.60;100435.02;109451;1274;22412;-57
2022/04/29 01:09:02;;;;;;;8.00;4.10;;;;;;;7.34;58.13;100437.24;109367;1271;138839;-57
2022/04/29 01:11:31;;;;;;;10.30;4.20;;;;;;;7.22;58.33;100435.42;109522;1274;23687;-57
2022/04/29 01:13:59;;;;;;;7.80;3.50;;;;;;;7.10;58.63;100433.03;109271;1274;22489;-57
2022/04/29 01:16:30;;;;;;;7.30;4.00;;;;;;;7.00;59.44;100432.77;109317;1274;139009;-57
2022/04/29 01:18:59;;;;;;;7.20;3.80;;;;;;;6.93;59.59;100427.92;109368;1274;22288;-56
2022/04/29 01:21:28;;;;;;;6.20;3.60;;;;;;;6.86;60.08;100428.27;109415;1273;138187;-56
2022/04/29 01:23:56;;;;;;;6.30;3.80;;;;;;;6.81;60.31;100428.06;109360;1274;22575;-57
2022/04/29 01:26:25;;;;;;;6.30;3.70;;;;;;;6.74;60.49;100423.33;109445;1273;22447;-57
2022/04/29 01:28:53;;;;;;;7.40;3.80;;;;;;;6.71;60.72;100427.83;109287;1273;138748;-57
2022/04/29 01:31:24;;;;;;;8.00;3.50;;;;;;;6.66;60.92;100428.99;109396;1273;22504;-57
2022/04/29 01:33:53;;;;;;;5.90;3.50;;;;;;;6.61;60.89;100429.55;109275;1274;137393;-57
2022/04/29 01:36:21;;;;;;;7.20;3.80;;;;;;;6.60;60.66;100428.31;109545;1273;23526;-57
2022/04/29 01:38:49;;;;;;;6.10;3.70;;;;;;;6.58;60.63;100426.18;109343;1274;137630;-57
2022/04/29 01:41:18;;;;;;;6.50;3.80;;;;;;;6.56;60.44;100426.48;109449;1274;22908;-57
2022/04/29 01:43:46;;;;;;;6.10;3.50;;;;;;;6.57;60.17;100428.14;109529;1272;22420;-57
2022/04/29 01:46:15;;;;;;;6.10;3.60;;;;;;;6.62;60.02;100428.06;109426;1273;138417;-57
2022/04/29 01:48:58;;;;;;;5.40;3.60;;;;;;;6.69;59.74;100429.73;109509;1273;22423;-57
2022/04/29 01:51:44;;;;;;;5.90;3.90;;;;;;;6.77;59.65;100433.52;109391;1273;137120;-57
2022/04/29 01:54:13;;;;;;;5.90;3.50;;;;;;;6.85;59.19;100432.69;109342;1274;22424;-57
2022/04/29 01:56:42;;;;;;;7.60;4.10;;;;;;;6.91;58.70;100433.70;109461;1273;22250;-57
2022/04/29 01:59:12;;;;;;;6.70;3.90;;;;;;;6.97;58.70;100437.40;109270;1274;137009;-57
2022/04/29 02:02:03;;;;;;;6.90;4.20;;;;;;;7.04;58.46;100437.73;109359;1274;22524;-57
2022/04/29 02:04:36;;;;;;;6.00;3.90;;;;;;;7.07;58.29;100443.04;109449;1273;137153;-57
2022/04/29 02:07:08;;;;;;;6.00;3.80;;;;;;;7.07;58.25;100438.99;109448;1274;22456;-57
2022/04/29 02:09:41;;;;;;;6.10;3.80;;;;;;;7.08;57.96;100439.45;109306;1274;139377;-57
2022/04/29 02:12:11;;;;;;;6.80;3.40;;;;;;;7.07;58.17;100438.16;109441;1274;23237;-57
2022/04/29 02:14:58;;;;;;;6.20;3.50;;;;;;;7.07;57.99;100438.83;109391;1273;139390;-58
2022/04/29 02:17:49;;;;;;;8.50;4.30;;;;;;;7.08;58.01;100441.41;109490;1273;22418;-57
2022/04/29 02:20:21;;;;;;;7.80;3.50;;;;;;;7.08;57.82;100440.29;109427;1273;22440;-57
2022/04/29 02:22:49;;;;;;;13.00;5.50;;;;;;;7.06;58.20;100440.04;109322;1273;138443;-57
2022/04/29 02:25:17;;;;;;;8.60;4.40;;;;;;;7.06;58.10;100439.23;109484;1273;22411;-58
2022/04/29 02:27:46;;;;;;;12.10;4.90;;;;;;;7.04;58.32;100440.02;109446;1273;137381;-58
2022/04/29 02:32:32;;;;;;;9.40;4.80;;;;;;;7.01;58.56;100440.81;101585;1310;558192;-56
2022/04/29 02:35:00;;;;;;;12.90;5.00;;;;;;;6.94;59.19;100443.12;108081;1286;136698;-57
2022/04/29 02:37:28;;;;;;;6.80;4.30;;;;;;;6.90;59.31;100445.52;107985;1287;22485;-57
2022/04/29 02:39:55;;;;;;;;;;;;;;;6.84;59.61;100454.55;107914;1287;136726;-57
2022/04/29 02:42:22;;;;;;;11.60;4.50;;;;;;;6.78;59.74;100453.48;108057;1287;22514;-57
2022/04/29 02:44:49;;;;;;;6.10;3.70;;;;;;;6.67;60.21;100454.38;107893;1286;203783;-57
2022/04/29 02:47:17;;;;;;;10.30;4.80;;;;;;;6.53;60.60;100455.47;108234;1285;137524;-57
2022/04/29 02:49:44;;;;;;;6.80;4.10;;;;;;;6.41;60.99;100457.38;108310;1285;22542;-57
2022/04/29 02:52:15;;;;;;;10.60;4.40;;;;;;;6.27;61.36;100460.95;108153;1285;136754;-57
2022/04/29 02:54:43;;;;;;;8.80;4.60;;;;;;;6.15;62.12;100458.95;108303;1285;22503;-57
2022/04/29 02:57:33;;;;;;;6.10;4.30;;;;;;;6.09;62.38;100459.52;108119;1285;136913;-57
2022/04/29 03:00:03;;;;;;;8.30;4.50;;;;;;;6.01;62.76;100458.68;108586;1282;22460;-57
2022/04/29 03:02:30;;;;;;;10.50;5.00;;;;;;;6.00;62.93;100462.25;108621;1282;22495;-57
2022/04/29 03:04:57;;;;;;;;;;;;;;;6.00;63.42;100460.84;108652;1280;136959;-57
2022/04/29 03:07:29;;;;;;;8.20;4.20;;;;;;;6.02;63.29;100461.64;109048;1277;22404;-57
2022/04/29 03:09:57;;;;;;;9.80;5.20;;;;;;;6.06;63.17;100468.70;109018;1277;138474;-57
2022/04/29 03:12:28;;;;;;;8.90;5.20;;;;;;;6.10;63.36;100468.84;109246;1277;22438;-57
2022/04/29 03:15:25;;;;;;;9.90;5.30;;;;;;;6.15;63.12;100473.23;109055;1277;138590;-57
2022/04/29 03:20:45;;;;;;;9.00;5.70;;;;;;;6.24;63.30;100473.94;109191;1277;23794;-57
2022/04/29 03:23:13;;;;;;;9.70;4.70;;;;;;;6.29;63.14;100478.20;108920;1276;137252;-57
2022/04/29 03:25:51;;;;;;;11.60;5.30;;;;;;;6.35;62.97;100476.95;109155;1277;23549;-57
2022/04/29 03:28:19;;;;;;;12.40;5.10;;;;;;;6.43;63.18;100482.83;109073;1277;136932;-57
2022/04/29 03:30:47;;;;;;;9.80;5.20;;;;;;;6.49;63.21;100485.04;109166;1277;22423;-57
2022/04/29 03:33:15;;;;;;;8.10;5.20;;;;;;;6.55;63.21;100486.41;109081;1277;137710;-57
2022/04/29 03:35:44;;;;;;;10.00;5.80;;;;;;;6.60;63.11;100487.00;109123;1277;22446;-57
2022/04/29 03:38:40;;;;;;;9.50;5.50;;;;;;;6.68;63.05;100493.53;109014;1276;22465;-57
2022/04/29 03:41:08;;;;;;;10.80;5.20;;;;;;;6.78;63.18;100490.81;108928;1277;137378;-57
2022/04/29 03:43:36;;;;;;;10.50;4.90;;;;;;;6.90;62.87;100488.48;109115;1277;22368;-57
2022/04/29 03:46:06;;;;;;;9.00;5.10;;;;;;;7.03;62.57;100493.24;108993;1277;138110;-57
2022/04/29 03:51:46;;;;;;;10.60;6.00;;;;;;;7.39;61.79;100497.00;109055;1277;138290;-57
2022/04/29 03:54:14;;;;;;;10.60;5.50;;;;;;;7.51;61.64;100492.53;109048;1277;23207;-57
2022/04/29 03:56:46;;;;;;;7.10;4.70;;;;;;;7.65;61.64;100497.95;109119;1277;23184;-57
2022/04/29 03:59:12;;;;;;;6.80;4.90;;;;;;;7.79;61.37;100501.77;108933;1277;138433;-57
2022/04/29 04:01:39;;;;;;;;;;;;;;;7.92;61.18;100505.05;109097;1277;23601;-57
2022/04/29 04:04:07;;;;;;;8.50;5.40;;;;;;;8.03;61.01;100507.41;109105;1277;124375;-57
2022/04/29 04:06:49;;;;;;;6.90;4.80;;;;;;;8.12;60.65;100506.05;109123;1277;22488;-57
2022/04/29 04:09:21;;;;;;;9.10;5.00;;;;;;;8.20;60.46;100505.90;108942;1277;137011;-57
2022/04/29 04:11:51;;;;;;;6.70;4.20;;;;;;;8.25;60.34;100505.73;109078;1277;22626;-57
2022/04/29 04:14:38;;;;;;;10.20;5.00;;;;;;;8.33;60.23;100507.50;109207;1276;22424;-57
2022/04/29 04:17:08;;;;;;;7.10;4.10;;;;;;;8.41;59.93;100507.19;108986;1277;137363;-57
2022/04/29 04:19:37;;;;;;;6.40;4.20;;;;;;;8.49;59.89;100509.89;109075;1277;24843;-57
2022/04/29 04:22:04;;;;;;;5.20;3.40;;;;;;;8.55;59.72;100508.42;108930;1277;136900;-57
2022/04/29 04:24:32;;;;;;;11.30;4.20;;;;;;;8.63;59.25;100507.88;109094;1277;22412;-57
2022/04/29 04:27:04;;;;;;;6.30;3.60;;;;;;;8.71;58.40;100511.80;108941;1277;137223;-57
2022/04/29 04:29:33;;;;;;;5.80;3.60;;;;;;;8.78;57.74;100513.27;109215;1277;22437;-57
2022/04/29 04:32:00;;;;;;;5.00;3.20;;;;;;;8.85;57.19;100513.78;109147;1277;22288;-57
2022/04/29 04:37:13;;;;;;;7.00;3.10;;;;;;;9.08;56.31;100510.23;109124;1277;22599;-57
2022/04/29 04:39:40;;;;;;;6.20;3.70;;;;;;;9.26;55.82;100514.89;108920;1277;137022;-57
2022/04/29 04:42:11;;;;;;;5.10;3.40;;;;;;;9.46;55.33;100513.42;109238;1276;23272;-58
2022/04/29 04:44:49;;;;;;;8.70;4.20;;;;;;;9.73;55.73;100511.68;109198;1274;22680;-58
2022/04/29 04:47:16;;;;;;;5.40;3.40;;;;;;;10.10;55.35;100503.95;108854;1277;137697;-57
2022/04/29 04:50:04;;;;;;;;;;;;;;;10.53;53.76;100506.69;109222;1277;22502;-57
2022/04/29 04:52:32;;;;;;;6.50;3.60;;;;;;;10.85;52.88;100505.00;108983;1277;123909;-57
2022/04/29 04:54:58;;;;;;;;;;;;;;;11.15;51.74;100503.67;109130;1277;22516;-57
2022/04/29 04:57:29;;;;;;;8.40;3.40;;;;;;;11.41;51.30;100496.24;108973;1277;123814;-57
2022/04/29 04:59:56;;;;;;;6.30;2.60;;;;;;;11.67;50.62;100496.63;109070;1277;22520;-57
2022/04/29 05:02:22;;;;;;;;;;;;;;;11.91;49.97;100494.14;109130;1276;24779;-57
2022/04/29 05:05:13;;;;;;;6.70;3.30;;;;;;;12.17;49.07;100494.43;108873;1277;123311;-57
2022/04/29 05:07:48;;;;;;;4.80;3.10;;;;;;;12.40;48.55;100498.56;109144;1277;23941;-57
2022/04/29 05:10:16;;;;;;;6.20;3.70;;;;;;;12.56;47.46;100496.92;109088;1277;138434;-58
2022/04/29 05:12:49;;;;;;;6.10;2.70;;;;;;;12.74;46.67;100503.30;108981;1279;23276;-58
2022/04/29 05:15:38;;;;;;;4.50;3.30;;;;;;;12.95;46.72;100506.72;109098;1277;138378;-58
2022/04/29 05:18:09;;;;;;;9.30;3.20;;;;;;;13.11;45.96;100506.70;109079;1277;22453;-58
2022/04/29 05:21:11;;;;;;;8.00;3.00;;;;;;;13.32;45.10;100511.09;109001;1277;139092;-58
2022/04/29 05:23:38;;;;;;;6.00;3.00;;;;;;;13.52;44.38;100505.50;109073;1277;22456;-58
2022/04/29 05:26:25;;;;;;;8.20;2.90;;;;;;;13.71;43.67;100502.70;109177;1277;22425;-58
2022/04/29 05:29:14;;;;;;;5.40;3.10;;;;;;;13.84;43.58;100499.73;109117;1277;137605;-58
2022/04/29 05:31:59;;;;;;;6.20;3.00;;;;;;;13.91;43.07;100504.07;109193;1276;22438;-59
2022/04/29 05:34:46;;;;;;;7.30;2.90;;;;;;;14.00;43.04;100500.13;109035;1277;138280;-58
2022/04/29 05:37:47;;;;;;;6.50;3.00;;;;;;;14.22;42.68;100500.85;108862;1277;22417;-58
2022/04/29 05:43:05;;;;;;;7.40;3.60;;;;;;;14.43;41.61;100500.83;109150;1277;22442;-58
2022/04/29 05:45:33;;;;;;;6.10;3.50;;;;;;;14.42;41.24;100502.26;108981;1277;138560;-58
2022/04/29 05:48:02;;;;;;;3.80;2.90;;;;;;;14.44;41.06;100506.66;109080;1277;22237;-58
2022/04/29 05:50:31;;;;;;;7.10;3.00;;;;;;;14.42;40.84;100506.59;109139;1277;22468;-58
2022/04/29 05:52:57;;;;;;;7.10;2.60;;;;;;;14.40;40.70;100503.94;108982;1277;137639;-58
2022/04/29 05:55:25;;;;;;;8.10;2.70;;;;;;;14.36;40.74;100505.84;109071;1277;22429;-58
2022/04/29 05:58:12;;;;;;;5.70;2.70;;;;;;;14.29;40.85;100510.86;108998;1277;137595;-58
2022/04/29 06:00:44;;;;;;;5.80;3.10;;;;;;;14.25;41.02;100509.57;109124;1277;22461;-58
2022/04/29 06:03:10;;;;;;;;;;;;;;;14.20;40.99;100507.74;108960;1277;137840;-58
2022/04/29 06:05:37;;;;;;;8.20;3.20;;;;;;;14.14;41.05;100515.09;109150;1277;23561;-58
2022/04/29 06:08:05;;;;;;;8.60;3.00;;;;;;;14.10;40.89;100512.64;109046;1277;22427;-58
2022/04/29 06:10:43;;;;;;;9.80;3.50;;;;;;;14.11;40.93;100516.54;109097;1275;138370;-58
2022/04/29 06:13:11;;;;;;;7.40;3.30;;;;;;;14.10;41.04;100514.40;109059;1277;22650;-58
2022/04/29 06:15:59;;;;;;;8.10;3.20;;;;;;;14.12;40.86;100514.58;109004;1277;137892;-58
2022/04/29 06:19:04;;;;;;;6.30;3.10;;;;;;;14.14;40.73;100516.61;108801;1277;22431;-58
2022/04/29 06:22:04;;;;;;;4.80;2.90;;;;;;;14.14;40.46;100510.42;108666;1277;137409;-58
2022/04/29 06:24:34;;;;;;;4.50;2.30;;;;;;;14.14;40.42;100519.63;109133;1276;22455;-58
2022/04/29 06:27:21;;;;;;;10.00;3.00;;;;;;;14.15;40.02;100521.34;109104;1277;138292;-58
2022/04/29 06:29:56;;;;;;;4.80;2.40;;;;;;;14.17;40.13;100521.35;109200;1277;23539;-58
2022/04/29 06:32:32;;;;;;;5.20;2.40;;;;;;;14.14;39.81;100521.23;109084;1277;22451;-58
2022/04/29 06:35:19;;;;;;;7.20;2.30;;;;;;;14.11;40.19;100527.95;109013;1277;137090;-58
2022/04/29 06:37:46;;;;;;;7.40;2.70;;;;;;;14.11;40.47;100531.14;109047;1277;23664;-58
2022/04/29 06:40:46;;;;;;;6.60;2.60;;;;;;;14.13;40.46;100531.15;108851;1277;137225;-58
2022/04/29 06:43:13;;;;;;;8.80;2.40;;;;;;;14.16;40.06;100530.78;109082;1277;22452;-58
2022/04/29 06:45:59;;;;;;;6.40;2.60;;;;;;;14.19;39.59;100536.90;109080;1277;137659;-58
2022/04/29 06:48:55;;;;;;;7.60;2.70;;;;;;;14.17;39.36;100535.56;109177;1277;22422;-57
2022/04/29 06:51:41;;;;;;;9.90;3.20;;;;;;;14.15;40.51;100538.39;109059;1277;138510;-58
2022/04/29 06:54:17;;;;;;;5.30;2.70;;;;;;;14.16;40.45;100537.52;109051;1277;22479;-59
2022/04/29 06:56:47;;;;;;;4.40;2.40;;;;;;;14.18;39.28;100533.10;109109;1277;23313;-65
2022/04/29 06:59:15;;;;;;;6.00;2.10;;;;;;;14.11;38.88;100535.07;108975;1277;141530;-65
2022/04/29 07:01:42;;;;;;;5.00;2.20;;;;;;;14.01;39.20;100534.06;109100;1277;22440;-65
2022/04/29 07:04:11;;;;;;;4.00;1.90;;;;;;;13.97;39.92;100537.04;109090;1277;139159;-64
2022/04/29 07:06:38;;;;;;;4.90;2.00;;;;;;;13.98;39.96;100534.27;109139;1277;22489;-65
2022/04/29 07:09:07;;;;;;;4.00;1.80;;;;;;;14.03;39.69;100531.51;109008;1277;138107;-64
2022/04/29 07:11:55;;;;;;;4.40;2.00;;;;;;;14.07;39.08;100535.67;109144;1277;22394;-65
2022/04/29 07:14:26;;;;;;;3.40;1.70;;;;;;;14.10;39.52;100535.17;109073;1277;22647;-66
2022/04/29 07:17:09;;;;;;;6.70;1.80;;;;;;;14.14;39.11;100527.58;109308;1274;138911;-64
2022/04/29 07:19:39;;;;;;;3.30;2.00;;;;;;;14.17;39.41;100525.48;109484;1273;22417;-65
2022/04/29 07:22:26;;;;;;;3.60;2.00;;;;;;;14.24;39.31;100527.75;109345;1274;138926;-65
2022/04/29 07:24:54;;;;;;;5.40;2.70;;;;;;;14.30;39.35;100523.16;109428;1274;22489;-65
2022/04/29 07:27:24;;;;;;;2.30;1.80;;;;;;;14.34;39.23;100517.17;109293;1274;137828;-65
2022/04/29 07:29:51;;;;;;;3.70;2.00;;;;;;;14.36;38.84;100520.70;109389;1274;22506;-65
2022/04/29 07:32:23;;;;;;;3.10;1.60;;;;;;;14.36;38.53;100522.55;109355;1274;22589;-64
2022/04/29 07:43:40;;;;;;;2.70;1.50;;;;;;;14.31;38.23;100526.23;109492;1272;22490;-65
2022/04/29 07:46:10;;;;;;;5.00;2.30;;;;;;;14.24;38.24;100523.98;109322;1273;138351;-65
2022/04/29 07:49:04;;;;;;;3.40;1.70;;;;;;;14.19;38.65;100521.60;109254;1273;22462;-65
2022/04/29 07:51:39;;;;;;;4.50;2.50;;;;;;;14.20;38.65;100522.05;109347;1274;138730;-65
2022/04/29 07:54:07;;;;;;;5.90;2.70;;;;;;;14.20;37.66;100518.59;109388;1274;22868;-65
2022/04/29 07:56:35;;;;;;;2.70;2.00;;;;;;;14.13;37.70;100516.08;109379;1274;22588;-64
2022/04/29 07:59:02;;;;;;;3.20;1.90;;;;;;;14.10;37.47;100514.05;109297;1274;137484;-65
2022/04/29 08:01:33;;;;;;;5.10;2.30;;;;;;;14.08;37.26;100518.14;109455;1274;22256;-63
2022/04/29 08:04:01;;;;;;;3.40;2.20;;;;;;;14.04;37.61;100517.05;109328;1274;137917;-64
2022/04/29 08:06:34;;;;;;;4.10;2.30;;;;;;;14.06;38.18;100521.41;109423;1274;23372;-64
2022/04/29 08:09:21;;;;;;;4.20;2.00;;;;;;;14.11;37.92;100517.14;109376;1273;138221;-64
2022/04/29 08:11:48;;;;;;;6.60;2.20;;;;;;;14.11;37.47;100514.34;109526;1273;23192;-64
2022/04/29 08:14:29;;;;;;;6.40;2.40;;;;;;;14.14;37.46;100510.20;109452;1272;22398;-64
2022/04/29 08:17:43;;;;;;;3.30;2.10;;;;;;;14.20;38.55;100506.77;109421;1274;22575;-65
2022/04/29 08:20:10;;;;;;;3.80;1.90;;;;;;;14.30;38.99;100501.88;109376;1274;22461;-65
2022/04/29 08:22:49;;;;;;;7.40;2.30;;;;;;;14.42;39.34;100498.08;109303;1273;137486;-65
2022/04/29 08:25:20;;;;;;;5.00;2.70;;;;;;;14.55;39.97;100492.01;109381;1274;22421;-65
2022/04/29 08:27:53;;;;;;;5.90;2.20;;;;;;;14.69;39.50;100486.10;109338;1274;138251;-66
2022/04/29 08:30:22;;;;;;;3.00;2.10;;;;;;;14.81;39.04;100484.84;109373;1274;23282;-65
2022/04/29 08:32:50;;;;;;;4.30;2.90;;;;;;;14.92;38.31;100488.59;109513;1273;22478;-65
2022/04/29 08:35:28;;;;;;;5.40;2.70;;;;;;;14.97;37.27;100484.90;109300;1274;137987;-65
2022/04/29 08:37:58;;;;;;;4.40;2.30;;;;;;;14.97;37.76;100481.71;109478;1272;22428;-65
2022/04/29 08:40:31;;;;;;;5.10;2.40;;;;;;;15.00;38.53;100481.40;109286;1274;139279;-65
2022/04/29 08:43:12;;;;;;;4.10;2.70;;;;;;;15.03;37.76;100477.90;109405;1274;23308;-65
2022/04/29 08:45:39;;;;;;;6.90;2.40;;;;;;;15.05;37.90;100478.80;109083;1274;138310;-65
2022/04/29 08:48:26;;;;;;;4.20;2.00;;;;;;;15.07;37.01;100477.98;109475;1274;22423;-65
2022/04/29 08:50:52;;;;;;;3.70;2.30;;;;;;;15.05;36.72;100478.24;109413;1274;22481;-65
2022/04/29 08:53:20;;;;;;;3.00;2.10;;;;;;;15.01;37.04;100475.54;109347;1274;137666;-65
2022/04/29 08:58:38;;;;;;;7.40;2.50;;;;;;;14.89;36.74;100473.23;109357;1274;139285;-65
2022/04/29 09:01:09;;;;;;;5.60;2.30;;;;;;;14.84;36.97;100470.21;109409;1274;22417;-65
2022/04/29 09:03:37;;;;;;;4.20;2.60;;;;;;;14.80;37.41;100470.23;109335;1274;137651;-65
2022/04/29 09:06:24;;;;;;;4.80;2.50;;;;;;;14.73;37.68;100468.57;109446;1274;22431;-65
2022/04/29 09:08:51;;;;;;;4.00;2.40;;;;;;;14.67;38.00;100469.95;109474;1274;22393;-65
2022/04/29 09:11:25;;;;;;;5.10;2.70;;;;;;;14.61;38.24;100470.55;109325;1274;137856;-65
2022/04/29 09:13:52;;;;;;;4.30;2.40;;;;;;;14.57;38.38;100469.98;109494;1274;22505;-65
2022/04/29 09:16:21;;;;;;;3.70;2.30;;;;;;;14.55;38.91;100467.34;109281;1274;137758;-65
2022/04/29 09:18:53;;;;;;;4.20;2.90;;;;;;;14.58;38.30;100473.33;109453;1274;22506;-65
2022/04/29 09:21:27;;;;;;;4.50;2.60;;;;;;;14.58;38.39;100469.21;109370;1272;138230;-64
2022/04/29 09:23:56;;;;;;;8.90;2.80;;;;;;;14.60;38.42;100472.08;109432;1274;22470;-64
2022/04/29 09:26:40;;;;;;;8.70;4.70;;;;;;;14.61;38.25;100465.02;109442;1273;22439;-64
2022/04/29 09:29:39;;;;;;;5.70;3.30;;;;;;;14.63;38.38;100465.52;109192;1274;137400;-65
2022/04/29 09:32:24;;;;;;;6.90;3.70;;;;;;;14.66;38.07;100465.02;109446;1274;22428;-64
2022/04/29 09:34:58;;;;;;;7.60;2.50;;;;;;;14.64;37.90;100460.72;109375;1274;137358;-64
2022/04/29 09:37:27;;;;;;;5.30;2.40;;;;;;;14.61;37.68;100457.95;109475;1274;22542;-65
2022/04/29 09:40:00;;;;;;;4.30;2.40;;;;;;;14.59;38.00;100459.56;109240;1274;139428;-64
2022/04/29 09:42:35;;;;;;;8.40;3.40;;;;;;;14.55;38.16;100461.63;109469;1274;23218;-65
2022/04/29 09:45:17;;;;;;;7.40;2.60;;;;;;;14.50;38.52;100460.87;109458;1274;23132;-64
2022/04/29 09:47:44;;;;;;;8.70;4.00;;;;;;;14.46;38.24;100461.81;109336;1274;137703;-64
2022/04/29 09:50:11;;;;;;;5.00;2.60;;;;;;;14.41;38.66;100456.74;109470;1273;23120;-65
2022/04/29 09:52:38;;;;;;;;;;;;;;;14.42;39.27;100454.17;109331;1274;137901;-65
2022/04/29 09:55:14;;;;;;;5.60;2.20;;;;;;;14.46;39.22;100454.52;109471;1274;23115;-64
2022/04/29 09:57:48;;;;;;;6.30;2.60;;;;;;;14.50;39.04;100451.72;109325;1274;137540;-64
2022/04/29 10:00:16;;;;;;;5.60;2.50;;;;;;;14.53;38.47;100451.09;109504;1274;22485;-64
2022/04/29 10:02:43;;;;;;;6.20;2.70;;;;;;;14.54;38.74;100448.02;109426;1273;23938;-64
2022/04/29 10:05:10;;;;;;;6.10;2.40;;;;;;;14.59;39.00;100447.11;109332;1274;139204;-64
2022/04/29 10:07:46;;;;;;;5.50;2.40;;;;;;;14.68;38.76;100449.07;109391;1274;22425;-63
2022/04/29 10:10:15;;;;;;;6.30;3.00;;;;;;;14.74;38.55;100451.73;109327;1274;138512;-64
2022/04/29 10:12:45;;;;;;;7.50;2.70;;;;;;;14.76;38.59;100452.80;109503;1272;22435;-64
2022/04/29 10:15:34;;;;;;;5.80;2.60;;;;;;;14.79;38.64;100446.84;109279;1274;137979;-63
2022/04/29 10:23:41;;;;;;;3.90;2.30;;;;;;;14.71;39.03;100449.20;109271;1274;137465;-65
2022/04/29 10:26:08;;;;;;;5.00;3.20;;;;;;;14.69;38.99;100448.42;109405;1274;22437;-65
2022/04/29 10:28:36;;;;;;;5.60;2.20;;;;;;;14.66;39.01;100447.95;109211;1274;138815;-65
2022/04/29 10:31:06;;;;;;;4.40;2.50;;;;;;;14.61;39.12;100445.21;109400;1274;23222;-64
2022/04/29 10:33:34;;;;;;;5.50;2.90;;;;;;;14.62;39.54;100447.04;109425;1274;138481;-64
2022/04/29 10:36:07;;;;;;;5.30;2.40;;;;;;;14.65;39.30;100442.84;107705;1274;22563;-64
2022/04/29 10:38:35;;;;;;;5.80;2.10;;;;;;;14.68;39.82;100447.04;109515;1274;23228;-65
2022/04/29 10:41:10;;;;;;;6.50;2.20;;;;;;;14.70;39.08;100445.25;109341;1274;138849;-65
2022/04/29 10:43:38;;;;;;;3.20;2.10;;;;;;;14.69;38.92;100440.58;109552;1273;22467;-65
2022/04/29 10:46:05;;;;;;;6.20;2.30;;;;;;;14.66;38.75;100438.63;109198;1274;138199;-65
2022/04/29 10:48:39;;;;;;;3.70;1.90;;;;;;;14.63;38.60;100435.42;109355;1274;22245;-64
2022/04/29 10:51:29;;;;;;;2.40;2.00;;;;;;;14.63;38.81;100428.89;109394;1274;138604;-63
2022/04/29 10:54:14;;;;;;;3.80;2.20;;;;;;;14.66;39.49;100427.49;109449;1274;22457;-65
2022/04/29 10:57:14;;;;;;;2.60;1.80;;;;;;;14.72;38.97;100424.83;109130;1273;22522;-64
2022/04/29 11:00:00;;;;;;;4.70;2.60;;;;;;;14.76;38.98;100425.80;109446;1274;137860;-64
2022/04/29 11:02:28;;;;;;;3.00;2.00;;;;;;;14.75;38.71;100421.48;109312;1273;22640;-64
2022/04/29 11:04:57;;;;;;;3.20;1.70;;;;;;;14.77;38.32;100421.53;109399;1273;137491;-65
2022/04/29 11:07:35;;;;;;;3.60;1.50;;;;;;;14.77;37.99;100414.73;109526;1273;22437;-65
2022/04/29 11:10:19;;;;;;;6.80;1.50;;;;;;;14.79;37.50;100415.07;109410;1274;137767;-64
2022/04/29 11:12:59;;;;;;;3.10;1.90;;;;;;;14.78;37.01;100414.68;109551;1274;22477;-65
2022/04/29 11:15:46;;;;;;;3.30;1.70;;;;;;;14.78;37.02;100413.74;109376;1273;138917;-64
2022/04/29 11:18:31;;;;;;;2.50;1.50;;;;;;;14.78;36.93;100413.85;109526;1272;22460;-64
2022/04/29 11:20:59;;;;;;;;;;;;;;;14.78;36.69;100414.80;109393;1274;22486;-65
2022/04/29 11:26:17;;;;;;;1.20;1.10;;;;;;;14.74;36.29;100406.85;109404;1273;22385;-64
2022/04/29 11:28:52;;;;;;;1.60;1.20;;;;;;;14.76;36.41;100405.23;109307;1273;138811;-64
2022/04/29 11:31:53;;;;;;;1.70;1.40;;;;;;;14.79;36.22;100401.02;109258;1274;23669;-64
2022/04/29 11:34:20;;;;;;;2.20;1.40;;;;;;;14.81;36.35;100397.48;109217;1274;139249;-64
2022/04/29 11:36:47;;;;;;;;;;;;;;;14.83;36.60;100397.27;109498;1274;23370;-64
2022/04/29 11:39:15;;;;;;;3.10;1.90;;;;;;;14.85;36.81;100395.10;109393;1274;23921;-64
2022/04/29 11:41:56;;;;;;;3.20;1.90;;;;;;;14.85;37.21;100394.87;109437;1274;137839;-64
2022/04/29 11:44:40;;;;;;;3.10;1.40;;;;;;;14.87;37.82;100391.85;109397;1274;22382;-64
2022/04/29 11:47:07;;;;;;;2.10;1.60;;;;;;;14.96;37.36;100387.09;109407;1274;138947;-64
2022/04/29 11:49:35;;;;;;;7.30;1.60;;;;;;;15.04;36.66;100382.40;109390;1274;22494;-65
2022/04/29 11:52:21;;;;;;;7.40;2.20;;;;;;;15.10;37.12;100378.00;109401;1274;139455;-64
2022/04/29 11:54:55;;;;;;;4.90;1.40;;;;;;;15.20;37.67;100374.14;109430;1274;22489;-64
2022/04/29 11:57:22;;;;;;;2.80;1.70;;;;;;;15.28;36.81;100373.80;109420;1273;137479;-64
2022/04/29 11:59:49;;;;;;;1.80;1.10;;;;;;;15.34;36.91;100365.64;109542;1273;22492;-64
2022/04/29 12:02:17;;;;;;;2.20;1.40;;;;;;;15.38;36.41;100366.64;109571;1273;22429;-64
2022/04/29 12:05:03;;;;;;;3.30;1.50;;;;;;;15.37;35.86;100365.81;109347;1272;139767;-64
2022/04/29 12:07:41;;;;;;;2.40;1.60;;;;;;;15.33;36.00;100364.09;109555;1273;22414;-64
2022/04/29 12:10:19;;;;;;;2.30;1.30;;;;;;;15.30;35.39;100358.73;109302;1274;137632;-65
2022/04/29 12:12:49;;;;;;;3.90;1.50;;;;;;;15.27;35.83;100354.14;109531;1273;22468;-65
2022/04/29 12:15:18;;;;;;;4.50;1.50;;;;;;;15.28;35.90;100351.30;109503;1274;22524;-64
2022/04/29 12:17:45;;;;;;;3.90;2.40;;;;;;;15.33;36.73;100351.13;109324;1274;138189;-64
2022/04/29 12:20:17;;;;;;;3.50;2.40;;;;;;;15.41;37.38;100345.07;109517;1273;22492;-64
2022/04/29 12:22:43;;;;;;;4.80;1.90;;;;;;;15.48;36.60;100340.96;109447;1273;139288;-64